Terminal Aerodrome Forecast
Issued by NWS

Home | Current Version | Previous Version | Text Only | Print | Product List | Glossary On
Versions: 1 2 3 4 5 6 7 8 9 10 11 12 13
000
FTAK31 PAJN 021700
TAFAJN
TAF
PAJN 021722Z 0218/0318 14004KT P6SM SCT200
     FM022100 12008KT P6SM SCT050 BKN100
     FM030300 09006KT P6SM BKN040 OVC080
     FM031500 10007KT P6SM BKN035 OVC080=

USA.gov is the U.S. government's official web portal to all federal, state and local government web resources and services.